sensor_id;sensor_type;location;lat;lon;timestamp;temperature;humidity
8332;DHT22;4203;48.144;14.118;2023-05-16T00:51:38;8.10;99.90
8332;DHT22;4203;48.144;14.118;2023-05-16T00:54:54;8.10;99.90
8332;DHT22;4203;48.144;14.118;2023-05-16T00:58:05;8.10;99.90
8332;DHT22;4203;48.144;14.118;2023-05-16T01:01:12;8.10;99.90
8332;DHT22;4203;48.144;14.118;2023-05-16T04:59:06;9.10;99.90
8332;DHT22;4203;48.144;14.118;2023-05-16T05:02:19;9.30;99.90
8332;DHT22;4203;48.144;14.118;2023-05-16T05:05:24;9.70;99.90
8332;DHT22;4203;48.144;14.118;2023-05-16T05:08:32;9.80;99.90
8332;DHT22;4203;48.144;14.118;2023-05-16T05:11:52;10.00;99.90
8332;DHT22;4203;48.144;14.118;2023-05-16T05:36:50;11.00;99.90
8332;DHT22;4203;48.144;14.118;2023-05-16T05:40:06;11.00;99.90
8332;DHT22;4203;48.144;14.118;2023-05-16T05:42:56;10.80;99.90
8332;DHT22;4203;48.144;14.118;2023-05-16T05:45:39;11.00;99.90
8332;DHT22;4203;48.144;14.118;2023-05-16T05:48:18;10.90;99.90
8332;DHT22;4203;48.144;14.118;2023-05-16T05:51:33;10.90;99.90
8332;DHT22;4203;48.144;14.118;2023-05-16T06:00:24;11.20;99.90
8332;DHT22;4203;48.144;14.118;2023-05-16T06:03:34;10.90;99.90
8332;DHT22;4203;48.144;14.118;2023-05-16T06:06:38;10.20;99.90
8332;DHT22;4203;48.144;14.118;2023-05-16T06:09:29;11.90;99.90
8332;DHT22;4203;48.144;14.118;2023-05-16T06:12:34;11.20;99.90
8332;DHT22;4203;48.144;14.118;2023-05-16T06:15:43;11.70;99.90
8332;DHT22;4203;48.144;14.118;2023-05-16T06:19:25;11.70;99.90
8332;DHT22;4203;48.144;14.118;2023-05-16T06:26:28;11.90;99.90
8332;DHT22;4203;48.144;14.118;2023-05-16T06:29:40;11.80;99.90
8332;DHT22;4203;48.144;14.118;2023-05-16T06:33:17;11.90;99.90
8332;DHT22;4203;48.144;14.118;2023-05-16T07:10:35;14.20;99.90
8332;DHT22;4203;48.144;14.118;2023-05-16T07:13:02;15.00;99.90
8332;DHT22;4203;48.144;14.118;2023-05-16T07:15:31;15.40;99.90
8332;DHT22;4203;48.144;14.118;2023-05-16T07:17:58;15.60;99.90
8332;DHT22;4203;48.144;14.118;2023-05-16T07:20:25;15.90;99.90
8332;DHT22;4203;48.144;14.118;2023-05-16T07:22:52;16.10;99.90
8332;DHT22;4203;48.144;14.118;2023-05-16T07:25:22;16.30;99.90
8332;DHT22;4203;48.144;14.118;2023-05-16T07:27:50;16.60;99.90
8332;DHT22;4203;48.144;14.118;2023-05-16T07:30:18;16.90;99.90
8332;DHT22;4203;48.144;14.118;2023-05-16T07:32:46;17.00;99.90
8332;DHT22;4203;48.144;14.118;2023-05-16T07:35:13;16.70;99.90
8332;DHT22;4203;48.144;14.118;2023-05-16T07:37:40;16.50;99.90
8332;DHT22;4203;48.144;14.118;2023-05-16T07:40:09;16.30;99.90
8332;DHT22;4203;48.144;14.118;2023-05-16T07:42:37;16.40;99.90
8332;DHT22;4203;48.144;14.118;2023-05-16T07:45:07;16.60;99.90
8332;DHT22;4203;48.144;14.118;2023-05-16T07:47:34;16.70;99.90
8332;DHT22;4203;48.144;14.118;2023-05-16T07:50:01;16.70;99.90
8332;DHT22;4203;48.144;14.118;2023-05-16T07:52:28;16.60;99.90
8332;DHT22;4203;48.144;14.118;2023-05-16T07:54:56;16.40;99.90
8332;DHT22;4203;48.144;14.118;2023-05-16T07:57:23;16.00;99.90
8332;DHT22;4203;48.144;14.118;2023-05-16T07:59:50;15.80;99.90
8332;DHT22;4203;48.144;14.118;2023-05-16T08:02:22;15.90;99.90
8332;DHT22;4203;48.144;14.118;2023-05-16T08:04:51;15.80;99.90
8332;DHT22;4203;48.144;14.118;2023-05-16T08:07:18;15.60;99.90
8332;DHT22;4203;48.144;14.118;2023-05-16T08:09:45;15.70;99.90
8332;DHT22;4203;48.144;14.118;2023-05-16T08:12:12;15.80;99.90
8332;DHT22;4203;48.144;14.118;2023-05-16T08:14:40;15.70;99.90
8332;DHT22;4203;48.144;14.118;2023-05-16T08:17:07;15.70;99.90
8332;DHT22;4203;48.144;14.118;2023-05-16T08:19:35;15.70;99.90
8332;DHT22;4203;48.144;14.118;2023-05-16T08:22:05;15.80;99.90
8332;DHT22;4203;48.144;14.118;2023-05-16T08:24:32;15.50;99.90
8332;DHT22;4203;48.144;14.118;2023-05-16T08:26:59;15.40;99.90
8332;DHT22;4203;48.144;14.118;2023-05-16T08:29:26;15.50;99.90
8332;DHT22;4203;48.144;14.118;2023-05-16T08:31:54;15.60;99.90
8332;DHT22;4203;48.144;14.118;2023-05-16T08:34:21;15.50;99.90
8332;DHT22;4203;48.144;14.118;2023-05-16T08:36:50;15.50;99.90
8332;DHT22;4203;48.144;14.118;2023-05-16T08:39:17;15.40;99.90
8332;DHT22;4203;48.144;14.118;2023-05-16T08:41:44;15.30;99.90
8332;DHT22;4203;48.144;14.118;2023-05-16T08:44:12;15.20;99.90
8332;DHT22;4203;48.144;14.118;2023-05-16T08:46:49;14.90;99.90
8332;DHT22;4203;48.144;14.118;2023-05-16T08:49:17;15.60;99.90
8332;DHT22;4203;48.144;14.118;2023-05-16T08:51:46;15.80;99.90
8332;DHT22;4203;48.144;14.118;2023-05-16T08:54:15;16.00;99.90
8332;DHT22;4203;48.144;14.118;2023-05-16T08:56:43;16.10;99.90
8332;DHT22;4203;48.144;14.118;2023-05-16T08:59:11;16.10;99.90
8332;DHT22;4203;48.144;14.118;2023-05-16T09:01:38;15.90;99.90
8332;DHT22;4203;48.144;14.118;2023-05-16T09:04:08;15.80;99.90
8332;DHT22;4203;48.144;14.118;2023-05-16T09:06:35;15.90;99.90
8332;DHT22;4203;48.144;14.118;2023-05-16T09:09:03;16.00;99.90
8332;DHT22;4203;48.144;14.118;2023-05-16T09:11:34;16.10;99.90
8332;DHT22;4203;48.144;14.118;2023-05-16T09:14:01;16.20;99.90
8332;DHT22;4203;48.144;14.118;2023-05-16T09:16:29;16.30;99.90
8332;DHT22;4203;48.144;14.118;2023-05-16T09:18:58;16.30;99.90
8332;DHT22;4203;48.144;14.118;2023-05-16T09:21:26;16.40;99.90
8332;DHT22;4203;48.144;14.118;2023-05-16T09:23:54;16.40;99.90
8332;DHT22;4203;48.144;14.118;2023-05-16T09:26:22;16.50;99.90
8332;DHT22;4203;48.144;14.118;2023-05-16T09:28:53;16.70;99.90
8332;DHT22;4203;48.144;14.118;2023-05-16T09:31:21;16.90;99.90
8332;DHT22;4203;48.144;14.118;2023-05-16T09:33:52;17.10;99.90
8332;DHT22;4203;48.144;14.118;2023-05-16T09:36:19;17.30;99.90
8332;DHT22;4203;48.144;14.118;2023-05-16T09:38:47;17.60;99.90
8332;DHT22;4203;48.144;14.118;2023-05-16T09:41:15;17.80;99.90
8332;DHT22;4203;48.144;14.118;2023-05-16T09:43:44;17.90;99.90
8332;DHT22;4203;48.144;14.118;2023-05-16T09:46:14;18.10;99.90
8332;DHT22;4203;48.144;14.118;2023-05-16T09:48:43;18.00;99.90
8332;DHT22;4203;48.144;14.118;2023-05-16T09:51:11;18.00;99.90
8332;DHT22;4203;48.144;14.118;2023-05-16T09:53:39;18.00;99.90
8332;DHT22;4203;48.144;14.118;2023-05-16T09:56:09;18.00;99.90
8332;DHT22;4203;48.144;14.118;2023-05-16T09:58:38;17.80;99.90
8332;DHT22;4203;48.144;14.118;2023-05-16T10:01:06;17.40;99.90
8332;DHT22;4203;48.144;14.118;2023-05-16T10:03:37;16.60;99.90
8332;DHT22;4203;48.144;14.118;2023-05-16T10:06:05;16.30;99.90
8332;DHT22;4203;48.144;14.118;2023-05-16T10:08:34;16.00;99.90
8332;DHT22;4203;48.144;14.118;2023-05-16T10:11:03;15.90;99.90
8332;DHT22;4203;48.144;14.118;2023-05-16T10:13:32;16.00;99.90
8332;DHT22;4203;48.144;14.118;2023-05-16T10:16:05;15.80;99.90
8332;DHT22;4203;48.144;14.118;2023-05-16T10:18:33;15.80;99.90
8332;DHT22;4203;48.144;14.118;2023-05-16T10:21:05;15.60;99.90
8332;DHT22;4203;48.144;14.118;2023-05-16T10:23:34;15.30;99.90
8332;DHT22;4203;48.144;14.118;2023-05-16T10:26:02;15.10;99.90
8332;DHT22;4203;48.144;14.118;2023-05-16T10:28:31;15.00;99.90
8332;DHT22;4203;48.144;14.118;2023-05-16T10:30:58;14.90;99.90
8332;DHT22;4203;48.144;14.118;2023-05-16T10:33:26;14.80;99.90
8332;DHT22;4203;48.144;14.118;2023-05-16T10:35:54;14.70;99.90
8332;DHT22;4203;48.144;14.118;2023-05-16T10:38:24;14.80;99.90
8332;DHT22;4203;48.144;14.118;2023-05-16T10:40:52;14.80;99.90
8332;DHT22;4203;48.144;14.118;2023-05-16T10:43:25;14.80;99.90
8332;DHT22;4203;48.144;14.118;2023-05-16T10:45:58;15.00;99.90
8332;DHT22;4203;48.144;14.118;2023-05-16T10:52:08;14.70;99.90
8332;DHT22;4203;48.144;14.118;2023-05-16T10:54:54;14.60;99.90
8332;DHT22;4203;48.144;14.118;2023-05-16T10:57:23;14.60;99.90
8332;DHT22;4203;48.144;14.118;2023-05-16T10:59:50;14.60;99.90
8332;DHT22;4203;48.144;14.118;2023-05-16T13:00:26;14.90;99.90
8332;DHT22;4203;48.144;14.118;2023-05-16T13:02:54;15.10;99.90
8332;DHT22;4203;48.144;14.118;2023-05-16T13:05:21;15.20;99.90
8332;DHT22;4203;48.144;14.118;2023-05-16T13:07:48;15.20;99.90
8332;DHT22;4203;48.144;14.118;2023-05-16T13:10:17;15.30;99.90
8332;DHT22;4203;48.144;14.118;2023-05-16T13:12:45;15.40;99.90
8332;DHT22;4203;48.144;14.118;2023-05-16T13:15:12;15.50;99.90
8332;DHT22;4203;48.144;14.118;2023-05-16T13:17:42;15.60;99.90
8332;DHT22;4203;48.144;14.118;2023-05-16T13:20:10;15.50;99.90
8332;DHT22;4203;48.144;14.118;2023-05-16T13:22:40;15.30;99.90
8332;DHT22;4203;48.144;14.118;2023-05-16T13:25:08;15.10;99.90
8332;DHT22;4203;48.144;14.118;2023-05-16T13:27:35;14.90;99.90
8332;DHT22;4203;48.144;14.118;2023-05-16T13:30:03;14.60;99.90
8332;DHT22;4203;48.144;14.118;2023-05-16T13:32:30;14.60;99.90
8332;DHT22;4203;48.144;14.118;2023-05-16T13:34:59;14.70;99.90
8332;DHT22;4203;48.144;14.118;2023-05-16T13:37:26;14.90;99.90
8332;DHT22;4203;48.144;14.118;2023-05-16T13:39:54;15.00;99.90
8332;DHT22;4203;48.144;14.118;2023-05-16T13:42:21;15.10;99.90
8332;DHT22;4203;48.144;14.118;2023-05-16T13:44:48;15.20;99.90
8332;DHT22;4203;48.144;14.118;2023-05-16T13:47:16;15.30;99.90
8332;DHT22;4203;48.144;14.118;2023-05-16T13:49:43;15.30;99.90
8332;DHT22;4203;48.144;14.118;2023-05-16T13:52:12;15.30;99.90
8332;DHT22;4203;48.144;14.118;2023-05-16T13:54:39;15.30;99.90
8332;DHT22;4203;48.144;14.118;2023-05-16T13:57:06;15.10;99.90
8332;DHT22;4203;48.144;14.118;2023-05-16T13:59:34;15.00;99.90
8332;DHT22;4203;48.144;14.118;2023-05-16T14:02:01;14.90;99.90
8332;DHT22;4203;48.144;14.118;2023-05-16T14:04:28;14.80;99.90
8332;DHT22;4203;48.144;14.118;2023-05-16T14:06:55;14.80;99.90
8332;DHT22;4203;48.144;14.118;2023-05-16T14:09:24;14.80;99.90
8332;DHT22;4203;48.144;14.118;2023-05-16T14:11:51;14.70;99.90
8332;DHT22;4203;48.144;14.118;2023-05-16T14:14:18;14.70;99.90
8332;DHT22;4203;48.144;14.118;2023-05-16T14:16:45;14.70;99.90
8332;DHT22;4203;48.144;14.118;2023-05-16T14:19:13;14.60;99.90
8332;DHT22;4203;48.144;14.118;2023-05-16T14:21:40;14.60;99.90
8332;DHT22;4203;48.144;14.118;2023-05-16T14:24:08;14.60;99.90
8332;DHT22;4203;48.144;14.118;2023-05-16T14:26:36;14.50;99.90
8332;DHT22;4203;48.144;14.118;2023-05-16T14:29:04;14.40;99.90
8332;DHT22;4203;48.144;14.118;2023-05-16T14:31:31;14.40;99.90
8332;DHT22;4203;48.144;14.118;2023-05-16T14:34:00;14.30;99.90
8332;DHT22;4203;48.144;14.118;2023-05-16T14:36:28;14.20;99.90
8332;DHT22;4203;48.144;14.118;2023-05-16T14:38:56;14.10;99.90
8332;DHT22;4203;48.144;14.118;2023-05-16T14:41:23;14.10;99.90
8332;DHT22;4203;48.144;14.118;2023-05-16T14:43:53;14.00;99.90
8332;DHT22;4203;48.144;14.118;2023-05-16T14:46:21;13.90;99.90
8332;DHT22;4203;48.144;14.118;2023-05-16T14:48:48;13.90;99.90
8332;DHT22;4203;48.144;14.118;2023-05-16T14:51:15;13.80;99.90
8332;DHT22;4203;48.144;14.118;2023-05-16T14:53:43;13.80;99.90
8332;DHT22;4203;48.144;14.118;2023-05-16T14:56:10;13.80;99.90
8332;DHT22;4203;48.144;14.118;2023-05-16T14:58:37;13.80;99.90
8332;DHT22;4203;48.144;14.118;2023-05-16T15:01:06;13.80;99.90
8332;DHT22;4203;48.144;14.118;2023-05-16T15:03:35;13.80;99.90
8332;DHT22;4203;48.144;14.118;2023-05-16T15:06:03;13.90;99.90
8332;DHT22;4203;48.144;14.118;2023-05-16T15:08:32;13.90;99.90
8332;DHT22;4203;48.144;14.118;2023-05-16T15:11:00;13.90;99.90
8332;DHT22;4203;48.144;14.118;2023-05-16T15:13:27;13.90;99.90
8332;DHT22;4203;48.144;14.118;2023-05-16T15:15:55;13.90;99.90
8332;DHT22;4203;48.144;14.118;2023-05-16T15:18:24;13.90;99.90
8332;DHT22;4203;48.144;14.118;2023-05-16T15:20:51;13.90;99.90
8332;DHT22;4203;48.144;14.118;2023-05-16T15:23:18;13.80;99.90
8332;DHT22;4203;48.144;14.118;2023-05-16T15:25:46;13.80;99.90
8332;DHT22;4203;48.144;14.118;2023-05-16T15:28:14;13.80;99.90
8332;DHT22;4203;48.144;14.118;2023-05-16T15:30:44;13.80;99.90
8332;DHT22;4203;48.144;14.118;2023-05-16T15:33:11;13.80;99.90
8332;DHT22;4203;48.144;14.118;2023-05-16T15:35:41;13.80;99.90
8332;DHT22;4203;48.144;14.118;2023-05-16T15:38:08;13.80;99.90
8332;DHT22;4203;48.144;14.118;2023-05-16T15:40:35;13.70;99.90
8332;DHT22;4203;48.144;14.118;2023-05-16T15:43:02;13.70;99.90
8332;DHT22;4203;48.144;14.118;2023-05-16T15:45:30;13.70;99.90
8332;DHT22;4203;48.144;14.118;2023-05-16T15:47:58;13.60;99.90
8332;DHT22;4203;48.144;14.118;2023-05-16T15:50:26;13.60;99.90
8332;DHT22;4203;48.144;14.118;2023-05-16T15:52:57;13.60;99.90
8332;DHT22;4203;48.144;14.118;2023-05-16T15:55:24;13.60;99.90
8332;DHT22;4203;48.144;14.118;2023-05-16T15:57:52;13.60;99.90
8332;DHT22;4203;48.144;14.118;2023-05-16T16:00:22;13.60;99.90
8332;DHT22;4203;48.144;14.118;2023-05-16T16:02:49;13.70;99.90
8332;DHT22;4203;48.144;14.118;2023-05-16T16:05:17;13.70;99.90
8332;DHT22;4203;48.144;14.118;2023-05-16T16:07:44;13.70;99.90
8332;DHT22;4203;48.144;14.118;2023-05-16T16:10:13;13.60;99.90
8332;DHT22;4203;48.144;14.118;2023-05-16T16:12:41;13.60;99.90
8332;DHT22;4203;48.144;14.118;2023-05-16T16:15:09;13.60;99.90
8332;DHT22;4203;48.144;14.118;2023-05-16T16:17:37;13.50;99.90
8332;DHT22;4203;48.144;14.118;2023-05-16T16:20:05;13.50;99.90
8332;DHT22;4203;48.144;14.118;2023-05-16T16:22:32;13.50;99.90
8332;DHT22;4203;48.144;14.118;2023-05-16T16:24:59;13.50;99.90
8332;DHT22;4203;48.144;14.118;2023-05-16T16:27:28;13.50;99.90
8332;DHT22;4203;48.144;14.118;2023-05-16T16:29:55;13.50;99.90
8332;DHT22;4203;48.144;14.118;2023-05-16T16:32:24;13.50;99.90
8332;DHT22;4203;48.144;14.118;2023-05-16T16:34:51;13.40;99.90
8332;DHT22;4203;48.144;14.118;2023-05-16T16:37:18;13.40;99.90
8332;DHT22;4203;48.144;14.118;2023-05-16T16:39:46;13.40;99.90
8332;DHT22;4203;48.144;14.118;2023-05-16T16:45:41;13.30;99.90
8332;DHT22;4203;48.144;14.118;2023-05-16T16:48:09;13.30;99.90
8332;DHT22;4203;48.144;14.118;2023-05-16T16:50:36;13.20;99.90
8332;DHT22;4203;48.144;14.118;2023-05-16T16:59:51;13.10;99.90
8332;DHT22;4203;48.144;14.118;2023-05-16T17:09:22;13.10;99.90
8332;DHT22;4203;48.144;14.118;2023-05-16T20:31:35;11.20;99.90
8332;DHT22;4203;48.144;14.118;2023-05-16T20:34:37;11.10;99.90
8332;DHT22;4203;48.144;14.118;2023-05-16T20:37:24;10.70;99.90
8332;DHT22;4203;48.144;14.118;2023-05-16T20:40:20;10.60;99.90
8332;DHT22;4203;48.144;14.118;2023-05-16T20:43:36;11.20;99.90
8332;DHT22;4203;48.144;14.118;2023-05-16T20:46:33;11.10;99.90
8332;DHT22;4203;48.144;14.118;2023-05-16T20:49:19;10.80;99.90
8332;DHT22;4203;48.144;14.118;2023-05-16T20:52:17;11.10;99.90
8332;DHT22;4203;48.144;14.118;2023-05-16T20:55:02;11.10;99.90
8332;DHT22;4203;48.144;14.118;2023-05-16T20:57:53;11.10;99.90
8332;DHT22;4203;48.144;14.118;2023-05-16T21:00:37;10.30;99.90
8332;DHT22;4203;48.144;14.118;2023-05-16T21:03:32;11.10;99.90
8332;DHT22;4203;48.144;14.118;2023-05-16T21:06:16;10.40;99.90
8332;DHT22;4203;48.144;14.118;2023-05-16T21:09:44;11.00;99.90
8332;DHT22;4203;48.144;14.118;2023-05-16T21:12:30;11.70;99.90
8332;DHT22;4203;48.144;14.118;2023-05-16T21:15:14;10.70;99.90
8332;DHT22;4203;48.144;14.118;2023-05-16T21:17:55;10.90;99.90
8332;DHT22;4203;48.144;14.118;2023-05-16T21:23:28;10.20;99.90
8332;DHT22;4203;48.144;14.118;2023-05-16T21:26:02;10.60;99.90
8332;DHT22;4203;48.144;14.118;2023-05-16T21:28:52;10.80;99.90
8332;DHT22;4203;48.144;14.118;2023-05-16T21:31:45;10.80;99.90
8332;DHT22;4203;48.144;14.118;2023-05-16T21:37:43;10.70;99.90
8332;DHT22;4203;48.144;14.118;2023-05-16T21:40:31;10.70;99.90
8332;DHT22;4203;48.144;14.118;2023-05-16T21:43:22;9.30;99.90
8332;DHT22;4203;48.144;14.118;2023-05-16T21:46:05;10.30;99.90
8332;DHT22;4203;48.144;14.118;2023-05-16T21:49:08;10.40;99.90
8332;DHT22;4203;48.144;14.118;2023-05-16T21:52:16;9.90;99.90
8332;DHT22;4203;48.144;14.118;2023-05-16T21:54:54;10.20;99.90
8332;DHT22;4203;48.144;14.118;2023-05-16T22:01:04;10.70;99.90
8332;DHT22;4203;48.144;14.118;2023-05-16T22:04:12;10.50;99.90
8332;DHT22;4203;48.144;14.118;2023-05-16T22:06:51;11.10;99.90
8332;DHT22;4203;48.144;14.118;2023-05-16T22:09:24;10.60;99.90
8332;DHT22;4203;48.144;14.118;2023-05-16T22:12:03;9.40;99.90
8332;DHT22;4203;48.144;14.118;2023-05-16T22:14:47;11.10;99.90
8332;DHT22;4203;48.144;14.118;2023-05-16T22:17:42;9.80;99.90
8332;DHT22;4203;48.144;14.118;2023-05-16T22:20:17;10.30;99.90
8332;DHT22;4203;48.144;14.118;2023-05-16T22:22:58;10.60;99.90
8332;DHT22;4203;48.144;14.118;2023-05-16T22:25:27;9.80;99.90
8332;DHT22;4203;48.144;14.118;2023-05-16T22:28:10;10.40;99.90
8332;DHT22;4203;48.144;14.118;2023-05-16T22:30:39;10.40;99.90
8332;DHT22;4203;48.144;14.118;2023-05-16T22:33:13;11.00;99.90
8332;DHT22;4203;48.144;14.118;2023-05-16T22:36:02;10.40;99.90
8332;DHT22;4203;48.144;14.118;2023-05-16T22:38:33;10.30;99.90
8332;DHT22;4203;48.144;14.118;2023-05-16T22:41:04;10.30;99.90
8332;DHT22;4203;48.144;14.118;2023-05-16T22:43:37;10.30;99.90
8332;DHT22;4203;48.144;14.118;2023-05-16T22:46:16;10.90;99.90
8332;DHT22;4203;48.144;14.118;2023-05-16T22:49:14;10.10;99.90
8332;DHT22;4203;48.144;14.118;2023-05-16T22:51:46;10.70;99.90
8332;DHT22;4203;48.144;14.118;2023-05-16T22:54:17;10.10;99.90
8332;DHT22;4203;48.144;14.118;2023-05-16T22:57:01;10.70;99.90
8332;DHT22;4203;48.144;14.118;2023-05-16T22:59:38;10.40;99.90
8332;DHT22;4203;48.144;14.118;2023-05-16T23:05:23;10.00;99.90
8332;DHT22;4203;48.144;14.118;2023-05-16T23:07:58;9.60;99.90
8332;DHT22;4203;48.144;14.118;2023-05-16T23:10:30;9.00;99.90
8332;DHT22;4203;48.144;14.118;2023-05-16T23:13:18;9.90;99.90
8332;DHT22;4203;48.144;14.118;2023-05-16T23:15:53;9.90;99.90
8332;DHT22;4203;48.144;14.118;2023-05-16T23:18:23;9.80;99.90
8332;DHT22;4203;48.144;14.118;2023-05-16T23:21:12;9.80;99.90
8332;DHT22;4203;48.144;14.118;2023-05-16T23:27:16;9.80;99.90
8332;DHT22;4203;48.144;14.118;2023-05-16T23:30:08;9.80;99.90
8332;DHT22;4203;48.144;14.118;2023-05-16T23:32:49;9.80;99.90
8332;DHT22;4203;48.144;14.118;2023-05-16T23:35:38;9.80;99.90
8332;DHT22;4203;48.144;14.118;2023-05-16T23:38:40;9.80;99.90
8332;DHT22;4203;48.144;14.118;2023-05-16T23:41:11;9.70;99.90
